sensor_id;sensor_type;location;lat;lon;timestamp;P1;durP1;ratioP1;P2;durP2;ratioP2
75520;SDS011;64102;48.628;9.002;2023-08-21T00:01:14;9.68;;;2.40;;
75520;SDS011;64102;48.628;9.002;2023-08-21T00:03:39;9.83;;;2.40;;
75520;SDS011;64102;48.628;9.002;2023-08-21T00:06:04;10.80;;;3.60;;
75520;SDS011;64102;48.628;9.002;2023-08-21T00:08:30;10.47;;;2.67;;
75520;SDS011;64102;48.628;9.002;2023-08-21T00:10:55;8.77;;;2.73;;
75520;SDS011;64102;48.628;9.002;2023-08-21T00:13:21;9.73;;;3.13;;
75520;SDS011;64102;48.628;9.002;2023-08-21T00:15:46;9.57;;;2.80;;
75520;SDS011;64102;48.628;9.002;2023-08-21T00:18:12;10.43;;;3.10;;
75520;SDS011;64102;48.628;9.002;2023-08-21T00:20:37;9.23;;;2.60;;
75520;SDS011;64102;48.628;9.002;2023-08-21T00:23:03;9.15;;;2.63;;
75520;SDS011;64102;48.628;9.002;2023-08-21T00:25:28;10.75;;;2.92;;
75520;SDS011;64102;48.628;9.002;2023-08-21T00:27:53;9.50;;;2.87;;
75520;SDS011;64102;48.628;9.002;2023-08-21T00:30:19;11.63;;;3.00;;
75520;SDS011;64102;48.628;9.002;2023-08-21T00:32:44;10.13;;;2.90;;
75520;SDS011;64102;48.628;9.002;2023-08-21T00:35:09;11.63;;;3.07;;
75520;SDS011;64102;48.628;9.002;2023-08-21T00:37:35;10.73;;;3.10;;
75520;SDS011;64102;48.628;9.002;2023-08-21T00:40:00;8.83;;;3.03;;
75520;SDS011;64102;48.628;9.002;2023-08-21T00:42:25;10.07;;;3.10;;
75520;SDS011;64102;48.628;9.002;2023-08-21T00:44:51;11.32;;;3.30;;
75520;SDS011;64102;48.628;9.002;2023-08-21T00:47:16;9.57;;;3.07;;
75520;SDS011;64102;48.628;9.002;2023-08-21T00:49:42;9.43;;;2.78;;
75520;SDS011;64102;48.628;9.002;2023-08-21T00:52:08;10.57;;;3.00;;
75520;SDS011;64102;48.628;9.002;2023-08-21T00:54:37;9.40;;;2.47;;
75520;SDS011;64102;48.628;9.002;2023-08-21T00:57:03;9.23;;;3.05;;
75520;SDS011;64102;48.628;9.002;2023-08-21T00:59:28;9.98;;;2.50;;
75520;SDS011;64102;48.628;9.002;2023-08-21T01:01:54;10.35;;;2.70;;
75520;SDS011;64102;48.628;9.002;2023-08-21T01:04:19;11.23;;;2.83;;
75520;SDS011;64102;48.628;9.002;2023-08-21T01:06:46;9.40;;;2.83;;
75520;SDS011;64102;48.628;9.002;2023-08-21T01:09:15;10.82;;;3.33;;
75520;SDS011;64102;48.628;9.002;2023-08-21T01:15:02;9.32;;;2.60;;
75520;SDS011;64102;48.628;9.002;2023-08-21T01:17:29;10.65;;;3.08;;
75520;SDS011;64102;48.628;9.002;2023-08-21T01:19:55;12.40;;;3.38;;
75520;SDS011;64102;48.628;9.002;2023-08-21T01:22:27;9.45;;;2.78;;
75520;SDS011;64102;48.628;9.002;2023-08-21T01:25:00;10.30;;;2.88;;
75520;SDS011;64102;48.628;9.002;2023-08-21T01:27:25;10.33;;;2.80;;
75520;SDS011;64102;48.628;9.002;2023-08-21T01:29:50;9.73;;;2.72;;
75520;SDS011;64102;48.628;9.002;2023-08-21T01:34:45;10.80;;;3.10;;
75520;SDS011;64102;48.628;9.002;2023-08-21T01:37:12;9.85;;;2.40;;
75520;SDS011;64102;48.628;9.002;2023-08-21T01:39:38;10.05;;;2.70;;
75520;SDS011;64102;48.628;9.002;2023-08-21T01:42:04;9.93;;;2.20;;
75520;SDS011;64102;48.628;9.002;2023-08-21T01:44:29;12.00;;;2.42;;
75520;SDS011;64102;48.628;9.002;2023-08-21T01:46:54;8.70;;;2.50;;
75520;SDS011;64102;48.628;9.002;2023-08-21T01:49:20;11.03;;;2.50;;
75520;SDS011;64102;48.628;9.002;2023-08-21T01:51:46;12.82;;;3.10;;
75520;SDS011;64102;48.628;9.002;2023-08-21T01:54:11;8.82;;;2.60;;
75520;SDS011;64102;48.628;9.002;2023-08-21T01:56:36;8.50;;;2.55;;
75520;SDS011;64102;48.628;9.002;2023-08-21T01:59:03;9.73;;;2.70;;
75520;SDS011;64102;48.628;9.002;2023-08-21T02:01:29;8.73;;;2.53;;
75520;SDS011;64102;48.628;9.002;2023-08-21T02:03:55;10.88;;;2.72;;
75520;SDS011;64102;48.628;9.002;2023-08-21T02:06:20;11.23;;;3.23;;
75520;SDS011;64102;48.628;9.002;2023-08-21T02:08:45;11.43;;;3.17;;
75520;SDS011;64102;48.628;9.002;2023-08-21T02:11:11;10.25;;;3.13;;
75520;SDS011;64102;48.628;9.002;2023-08-21T02:13:36;10.23;;;3.05;;
75520;SDS011;64102;48.628;9.002;2023-08-21T02:16:02;10.10;;;3.53;;
75520;SDS011;64102;48.628;9.002;2023-08-21T02:18:27;11.50;;;3.20;;
75520;SDS011;64102;48.628;9.002;2023-08-21T02:20:53;10.87;;;3.17;;
75520;SDS011;64102;48.628;9.002;2023-08-21T02:23:18;9.83;;;3.17;;
75520;SDS011;64102;48.628;9.002;2023-08-21T02:25:43;10.30;;;3.23;;
75520;SDS011;64102;48.628;9.002;2023-08-21T02:28:09;10.90;;;3.50;;
75520;SDS011;64102;48.628;9.002;2023-08-21T02:30:34;10.43;;;3.33;;
75520;SDS011;64102;48.628;9.002;2023-08-21T02:32:59;9.07;;;3.27;;
75520;SDS011;64102;48.628;9.002;2023-08-21T02:35:25;10.67;;;2.90;;
75520;SDS011;64102;48.628;9.002;2023-08-21T02:37:50;10.57;;;3.10;;
75520;SDS011;64102;48.628;9.002;2023-08-21T02:40:15;10.55;;;3.20;;
75520;SDS011;64102;48.628;9.002;2023-08-21T02:42:41;9.88;;;2.53;;
75520;SDS011;64102;48.628;9.002;2023-08-21T02:45:06;8.83;;;2.63;;
75520;SDS011;64102;48.628;9.002;2023-08-21T02:47:38;9.90;;;2.50;;
75520;SDS011;64102;48.628;9.002;2023-08-21T02:50:04;10.02;;;2.85;;
75520;SDS011;64102;48.628;9.002;2023-08-21T02:52:31;11.80;;;3.05;;
75520;SDS011;64102;48.628;9.002;2023-08-21T02:54:57;10.68;;;3.33;;
75520;SDS011;64102;48.628;9.002;2023-08-21T02:57:23;12.32;;;3.60;;
75520;SDS011;64102;48.628;9.002;2023-08-21T02:59:49;10.27;;;2.83;;
75520;SDS011;64102;48.628;9.002;2023-08-21T03:02:14;10.25;;;3.05;;
75520;SDS011;64102;48.628;9.002;2023-08-21T03:04:40;11.57;;;3.50;;
75520;SDS011;64102;48.628;9.002;2023-08-21T03:07:05;9.65;;;2.75;;
75520;SDS011;64102;48.628;9.002;2023-08-21T03:09:31;10.70;;;2.60;;
75520;SDS011;64102;48.628;9.002;2023-08-21T03:11:56;9.93;;;2.77;;
75520;SDS011;64102;48.628;9.002;2023-08-21T03:14:21;9.90;;;2.90;;
75520;SDS011;64102;48.628;9.002;2023-08-21T03:16:47;11.07;;;3.40;;
75520;SDS011;64102;48.628;9.002;2023-08-21T03:19:12;11.83;;;3.53;;
75520;SDS011;64102;48.628;9.002;2023-08-21T03:21:37;10.53;;;3.43;;
75520;SDS011;64102;48.628;9.002;2023-08-21T03:24:03;11.48;;;3.20;;
75520;SDS011;64102;48.628;9.002;2023-08-21T03:26:28;11.35;;;2.97;;
75520;SDS011;64102;48.628;9.002;2023-08-21T03:28:53;10.23;;;2.97;;
75520;SDS011;64102;48.628;9.002;2023-08-21T03:31:19;11.93;;;2.92;;
75520;SDS011;64102;48.628;9.002;2023-08-21T03:33:44;10.50;;;3.13;;
75520;SDS011;64102;48.628;9.002;2023-08-21T03:36:10;10.77;;;3.07;;
75520;SDS011;64102;48.628;9.002;2023-08-21T03:38:35;12.35;;;3.70;;
75520;SDS011;64102;48.628;9.002;2023-08-21T03:41:01;10.10;;;3.40;;
75520;SDS011;64102;48.628;9.002;2023-08-21T03:43:27;11.40;;;3.15;;
75520;SDS011;64102;48.628;9.002;2023-08-21T03:45:52;11.93;;;3.20;;
75520;SDS011;64102;48.628;9.002;2023-08-21T03:48:17;11.13;;;2.67;;
75520;SDS011;64102;48.628;9.002;2023-08-21T03:50:43;10.02;;;3.33;;
75520;SDS011;64102;48.628;9.002;2023-08-21T03:53:08;10.10;;;2.75;;
75520;SDS011;64102;48.628;9.002;2023-08-21T03:55:33;10.90;;;3.20;;
75520;SDS011;64102;48.628;9.002;2023-08-21T03:57:59;11.32;;;3.15;;
75520;SDS011;64102;48.628;9.002;2023-08-21T04:00:25;9.52;;;3.08;;
75520;SDS011;64102;48.628;9.002;2023-08-21T04:02:50;13.53;;;3.00;;
75520;SDS011;64102;48.628;9.002;2023-08-21T04:05:15;10.97;;;3.10;;
75520;SDS011;64102;48.628;9.002;2023-08-21T04:07:41;11.27;;;3.45;;
75520;SDS011;64102;48.628;9.002;2023-08-21T04:10:25;11.20;;;3.39;;
75520;SDS011;64102;48.628;9.002;2023-08-21T04:12:50;10.43;;;2.85;;
75520;SDS011;64102;48.628;9.002;2023-08-21T04:15:15;11.63;;;3.07;;
75520;SDS011;64102;48.628;9.002;2023-08-21T04:17:41;9.85;;;3.00;;
75520;SDS011;64102;48.628;9.002;2023-08-21T04:20:06;10.40;;;3.10;;
75520;SDS011;64102;48.628;9.002;2023-08-21T04:22:32;10.98;;;3.83;;
75520;SDS011;64102;48.628;9.002;2023-08-21T04:24:57;11.63;;;2.93;;
75520;SDS011;64102;48.628;9.002;2023-08-21T04:27:23;10.57;;;3.27;;
75520;SDS011;64102;48.628;9.002;2023-08-21T04:29:48;11.53;;;3.60;;
75520;SDS011;64102;48.628;9.002;2023-08-21T04:32:13;10.97;;;3.27;;
75520;SDS011;64102;48.628;9.002;2023-08-21T04:34:39;12.25;;;3.35;;
75520;SDS011;64102;48.628;9.002;2023-08-21T04:37:04;11.10;;;2.73;;
75520;SDS011;64102;48.628;9.002;2023-08-21T04:39:29;11.55;;;3.88;;
75520;SDS011;64102;48.628;9.002;2023-08-21T04:41:55;9.95;;;3.53;;
75520;SDS011;64102;48.628;9.002;2023-08-21T04:44:20;11.80;;;3.50;;
75520;SDS011;64102;48.628;9.002;2023-08-21T04:46:47;12.98;;;3.28;;
75520;SDS011;64102;48.628;9.002;2023-08-21T04:49:16;11.82;;;3.58;;
75520;SDS011;64102;48.628;9.002;2023-08-21T04:51:42;9.33;;;2.87;;
75520;SDS011;64102;48.628;9.002;2023-08-21T04:54:08;11.18;;;3.17;;
75520;SDS011;64102;48.628;9.002;2023-08-21T04:56:33;11.90;;;3.67;;
75520;SDS011;64102;48.628;9.002;2023-08-21T04:58:58;9.93;;;3.20;;
75520;SDS011;64102;48.628;9.002;2023-08-21T05:01:23;10.47;;;2.90;;
75520;SDS011;64102;48.628;9.002;2023-08-21T05:03:49;10.95;;;3.30;;
75520;SDS011;64102;48.628;9.002;2023-08-21T05:06:15;11.00;;;3.58;;
75520;SDS011;64102;48.628;9.002;2023-08-21T05:08:40;9.82;;;3.05;;
75520;SDS011;64102;48.628;9.002;2023-08-21T05:11:06;9.30;;;2.72;;
75520;SDS011;64102;48.628;9.002;2023-08-21T05:13:31;10.73;;;3.80;;
75520;SDS011;64102;48.628;9.002;2023-08-21T05:15:57;10.03;;;3.07;;
75520;SDS011;64102;48.628;9.002;2023-08-21T05:18:23;10.32;;;3.08;;
75520;SDS011;64102;48.628;9.002;2023-08-21T05:20:49;11.68;;;3.20;;
75520;SDS011;64102;48.628;9.002;2023-08-21T05:23:16;11.25;;;3.30;;
75520;SDS011;64102;48.628;9.002;2023-08-21T05:25:42;9.40;;;2.75;;
75520;SDS011;64102;48.628;9.002;2023-08-21T05:28:08;9.38;;;2.65;;
75520;SDS011;64102;48.628;9.002;2023-08-21T05:30:35;9.25;;;2.60;;
75520;SDS011;64102;48.628;9.002;2023-08-21T05:33:01;10.35;;;3.00;;
75520;SDS011;64102;48.628;9.002;2023-08-21T05:35:27;9.23;;;2.97;;
75520;SDS011;64102;48.628;9.002;2023-08-21T05:37:52;12.30;;;2.87;;
75520;SDS011;64102;48.628;9.002;2023-08-21T05:40:18;12.43;;;3.00;;
75520;SDS011;64102;48.628;9.002;2023-08-21T05:42:44;10.80;;;2.88;;
75520;SDS011;64102;48.628;9.002;2023-08-21T05:45:09;10.40;;;2.72;;
75520;SDS011;64102;48.628;9.002;2023-08-21T05:47:34;9.50;;;2.65;;
75520;SDS011;64102;48.628;9.002;2023-08-21T05:50:00;9.33;;;2.60;;
75520;SDS011;64102;48.628;9.002;2023-08-21T05:52:25;10.38;;;3.10;;
75520;SDS011;64102;48.628;9.002;2023-08-21T05:54:51;9.57;;;2.75;;
75520;SDS011;64102;48.628;9.002;2023-08-21T05:57:16;9.00;;;2.47;;
75520;SDS011;64102;48.628;9.002;2023-08-21T05:59:45;10.05;;;3.17;;
75520;SDS011;64102;48.628;9.002;2023-08-21T06:02:12;8.35;;;2.38;;
75520;SDS011;64102;48.628;9.002;2023-08-21T06:04:41;9.30;;;2.60;;
75520;SDS011;64102;48.628;9.002;2023-08-21T06:07:06;8.35;;;2.42;;
75520;SDS011;64102;48.628;9.002;2023-08-21T06:09:32;8.32;;;2.63;;
75520;SDS011;64102;48.628;9.002;2023-08-21T06:12:02;9.77;;;2.53;;
75520;SDS011;64102;48.628;9.002;2023-08-21T06:16:57;10.18;;;2.20;;
75520;SDS011;64102;48.628;9.002;2023-08-21T06:21:49;7.90;;;2.60;;
75520;SDS011;64102;48.628;9.002;2023-08-21T06:24:14;8.98;;;3.05;;
75520;SDS011;64102;48.628;9.002;2023-08-21T06:26:40;9.17;;;2.83;;
75520;SDS011;64102;48.628;9.002;2023-08-21T06:29:05;8.55;;;2.75;;
75520;SDS011;64102;48.628;9.002;2023-08-21T06:31:31;9.73;;;2.63;;
75520;SDS011;64102;48.628;9.002;2023-08-21T06:33:56;8.90;;;2.80;;
75520;SDS011;64102;48.628;9.002;2023-08-21T06:36:22;8.43;;;2.78;;
75520;SDS011;64102;48.628;9.002;2023-08-21T06:38:47;8.05;;;2.80;;
75520;SDS011;64102;48.628;9.002;2023-08-21T06:41:13;8.73;;;3.30;;
75520;SDS011;64102;48.628;9.002;2023-08-21T06:43:38;7.68;;;2.63;;
75520;SDS011;64102;48.628;9.002;2023-08-21T06:46:04;8.40;;;4.00;;
75520;SDS011;64102;48.628;9.002;2023-08-21T06:48:30;9.90;;;3.60;;
75520;SDS011;64102;48.628;9.002;2023-08-21T06:50:55;7.90;;;2.63;;
75520;SDS011;64102;48.628;9.002;2023-08-21T06:53:21;8.27;;;2.85;;
75520;SDS011;64102;48.628;9.002;2023-08-21T06:55:47;9.02;;;3.13;;
75520;SDS011;64102;48.628;9.002;2023-08-21T06:58:12;12.17;;;3.33;;
75520;SDS011;64102;48.628;9.002;2023-08-21T07:00:38;8.30;;;3.30;;
75520;SDS011;64102;48.628;9.002;2023-08-21T07:03:03;8.43;;;3.45;;
75520;SDS011;64102;48.628;9.002;2023-08-21T07:05:32;8.13;;;3.33;;
75520;SDS011;64102;48.628;9.002;2023-08-21T07:07:57;9.07;;;3.30;;
75520;SDS011;64102;48.628;9.002;2023-08-21T07:10:23;9.15;;;3.25;;
75520;SDS011;64102;48.628;9.002;2023-08-21T07:12:49;8.35;;;3.13;;
75520;SDS011;64102;48.628;9.002;2023-08-21T07:15:14;8.43;;;3.47;;
75520;SDS011;64102;48.628;9.002;2023-08-21T07:17:40;8.57;;;3.83;;
75520;SDS011;64102;48.628;9.002;2023-08-21T07:20:07;8.55;;;4.30;;
75520;SDS011;64102;48.628;9.002;2023-08-21T07:22:33;10.85;;;4.40;;
75520;SDS011;64102;48.628;9.002;2023-08-21T07:24:58;9.13;;;5.63;;
75520;SDS011;64102;48.628;9.002;2023-08-21T07:27:25;10.18;;;4.40;;
75520;SDS011;64102;48.628;9.002;2023-08-21T07:29:51;9.15;;;4.00;;
75520;SDS011;64102;48.628;9.002;2023-08-21T07:32:16;7.80;;;3.97;;
75520;SDS011;64102;48.628;9.002;2023-08-21T07:34:42;9.50;;;4.20;;
75520;SDS011;64102;48.628;9.002;2023-08-21T07:37:07;8.90;;;6.30;;
75520;SDS011;64102;48.628;9.002;2023-08-21T07:39:34;9.70;;;6.97;;
75520;SDS011;64102;48.628;9.002;2023-08-21T07:41:59;10.27;;;4.53;;
75520;SDS011;64102;48.628;9.002;2023-08-21T07:44:25;9.10;;;5.72;;
75520;SDS011;64102;48.628;9.002;2023-08-21T07:46:51;10.60;;;5.68;;
75520;SDS011;64102;48.628;9.002;2023-08-21T07:49:16;9.67;;;6.33;;
75520;SDS011;64102;48.628;9.002;2023-08-21T07:51:42;9.77;;;7.37;;
75520;SDS011;64102;48.628;9.002;2023-08-21T07:54:07;9.88;;;6.38;;
75520;SDS011;64102;48.628;9.002;2023-08-21T07:56:32;8.97;;;5.80;;
75520;SDS011;64102;48.628;9.002;2023-08-21T07:59:00;9.43;;;6.95;;
75520;SDS011;64102;48.628;9.002;2023-08-21T08:01:26;10.38;;;6.28;;
75520;SDS011;64102;48.628;9.002;2023-08-21T08:03:52;9.38;;;6.32;;
75520;SDS011;64102;48.628;9.002;2023-08-21T08:06:17;8.77;;;6.05;;
75520;SDS011;64102;48.628;9.002;2023-08-21T08:08:43;9.38;;;5.93;;
75520;SDS011;64102;48.628;9.002;2023-08-21T08:11:09;10.13;;;6.22;;
75520;SDS011;64102;48.628;9.002;2023-08-21T08:13:34;10.85;;;6.38;;
75520;SDS011;64102;48.628;9.002;2023-08-21T08:15:59;9.00;;;5.18;;
75520;SDS011;64102;48.628;9.002;2023-08-21T08:18:25;11.10;;;5.95;;
75520;SDS011;64102;48.628;9.002;2023-08-21T08:20:51;8.75;;;6.03;;
75520;SDS011;64102;48.628;9.002;2023-08-21T08:23:16;9.80;;;7.68;;
75520;SDS011;64102;48.628;9.002;2023-08-21T08:25:42;9.32;;;6.80;;
75520;SDS011;64102;48.628;9.002;2023-08-21T08:28:07;12.55;;;7.22;;
75520;SDS011;64102;48.628;9.002;2023-08-21T08:30:33;10.80;;;8.97;;
75520;SDS011;64102;48.628;9.002;2023-08-21T08:32:59;11.20;;;9.18;;
75520;SDS011;64102;48.628;9.002;2023-08-21T08:35:24;10.10;;;6.82;;
75520;SDS011;64102;48.628;9.002;2023-08-21T08:37:50;8.90;;;4.93;;
75520;SDS011;64102;48.628;9.002;2023-08-21T08:40:15;9.15;;;7.32;;
75520;SDS011;64102;48.628;9.002;2023-08-21T08:42:41;9.25;;;5.15;;
75520;SDS011;64102;48.628;9.002;2023-08-21T08:45:06;9.80;;;6.80;;
75520;SDS011;64102;48.628;9.002;2023-08-21T08:47:32;10.02;;;7.25;;
75520;SDS011;64102;48.628;9.002;2023-08-21T08:50:01;10.80;;;9.68;;
75520;SDS011;64102;48.628;9.002;2023-08-21T08:52:29;10.63;;;8.07;;
75520;SDS011;64102;48.628;9.002;2023-08-21T08:54:58;12.93;;;11.65;;
75520;SDS011;64102;48.628;9.002;2023-08-21T08:57:24;12.55;;;11.32;;
75520;SDS011;64102;48.628;9.002;2023-08-21T08:59:49;13.05;;;11.68;;
75520;SDS011;64102;48.628;9.002;2023-08-21T09:02:15;10.57;;;8.47;;
75520;SDS011;64102;48.628;9.002;2023-08-21T09:04:41;16.45;;;15.13;;
75520;SDS011;64102;48.628;9.002;2023-08-21T09:07:07;13.13;;;11.80;;
75520;SDS011;64102;48.628;9.002;2023-08-21T09:09:45;12.88;;;11.02;;
75520;SDS011;64102;48.628;9.002;2023-08-21T09:14:41;14.07;;;12.77;;
75520;SDS011;64102;48.628;9.002;2023-08-21T09:17:07;14.88;;;13.57;;
75520;SDS011;64102;48.628;9.002;2023-08-21T09:19:32;14.13;;;12.68;;
75520;SDS011;64102;48.628;9.002;2023-08-21T09:21:58;12.10;;;10.88;;
75520;SDS011;64102;48.628;9.002;2023-08-21T09:24:23;11.80;;;10.60;;
75520;SDS011;64102;48.628;9.002;2023-08-21T09:26:49;14.25;;;13.05;;
75520;SDS011;64102;48.628;9.002;2023-08-21T09:29:15;18.00;;;16.50;;
75520;SDS011;64102;48.628;9.002;2023-08-21T09:31:41;11.45;;;10.25;;
75520;SDS011;64102;48.628;9.002;2023-08-21T09:34:08;12.93;;;11.73;;
75520;SDS011;64102;48.628;9.002;2023-08-21T09:36:34;14.95;;;13.63;;
75520;SDS011;64102;48.628;9.002;2023-08-21T09:39:01;13.00;;;11.82;;
75520;SDS011;64102;48.628;9.002;2023-08-21T09:41:27;13.10;;;11.73;;
75520;SDS011;64102;48.628;9.002;2023-08-21T09:43:52;11.23;;;9.45;;
75520;SDS011;64102;48.628;9.002;2023-08-21T09:46:24;10.65;;;8.88;;
75520;SDS011;64102;48.628;9.002;2023-08-21T09:48:53;11.75;;;9.95;;
75520;SDS011;64102;48.628;9.002;2023-08-21T09:51:20;12.13;;;10.02;;
75520;SDS011;64102;48.628;9.002;2023-08-21T09:53:46;11.07;;;9.95;;
75520;SDS011;64102;48.628;9.002;2023-08-21T09:56:13;12.38;;;9.88;;
75520;SDS011;64102;48.628;9.002;2023-08-21T09:58:39;11.45;;;10.18;;
75520;SDS011;64102;48.628;9.002;2023-08-21T10:01:05;10.68;;;9.57;;
75520;SDS011;64102;48.628;9.002;2023-08-21T10:03:38;10.45;;;9.02;;
75520;SDS011;64102;48.628;9.002;2023-08-21T10:06:05;10.07;;;8.80;;
75520;SDS011;64102;48.628;9.002;2023-08-21T10:08:35;10.25;;;6.13;;
75520;SDS011;64102;48.628;9.002;2023-08-21T10:11:04;10.15;;;8.75;;
75520;SDS011;64102;48.628;9.002;2023-08-21T10:13:31;10.40;;;9.02;;
75520;SDS011;64102;48.628;9.002;2023-08-21T10:15:58;13.68;;;12.27;;
75520;SDS011;64102;48.628;9.002;2023-08-21T10:18:35;12.75;;;11.63;;
75520;SDS011;64102;48.628;9.002;2023-08-21T10:21:11;12.10;;;10.90;;
75520;SDS011;64102;48.628;9.002;2023-08-21T10:23:37;17.95;;;16.65;;
75520;SDS011;64102;48.628;9.002;2023-08-21T10:26:09;22.25;;;20.55;;
75520;SDS011;64102;48.628;9.002;2023-08-21T10:34:00;34.13;;;32.30;;
75520;SDS011;64102;48.628;9.002;2023-08-21T10:39:25;27.50;;;25.65;;
75520;SDS011;64102;48.628;9.002;2023-08-21T10:41:55;36.33;;;34.50;;
75520;SDS011;64102;48.628;9.002;2023-08-21T10:47:32;30.17;;;28.25;;
75520;SDS011;64102;48.628;9.002;2023-08-21T10:50:00;27.08;;;25.48;;
75520;SDS011;64102;48.628;9.002;2023-08-21T10:52:34;27.40;;;25.70;;
75520;SDS011;64102;48.628;9.002;2023-08-21T10:55:10;25.45;;;23.52;;
75520;SDS011;64102;48.628;9.002;2023-08-21T10:57:37;30.80;;;28.98;;
75520;SDS011;64102;48.628;9.002;2023-08-21T11:00:07;24.08;;;22.35;;
75520;SDS011;64102;48.628;9.002;2023-08-21T11:02:35;24.17;;;22.65;;
75520;SDS011;64102;48.628;9.002;2023-08-21T11:05:01;30.58;;;28.85;;
75520;SDS011;64102;48.628;9.002;2023-08-21T11:07:30;36.28;;;34.22;;
75520;SDS011;64102;48.628;9.002;2023-08-21T11:10:01;30.55;;;28.80;;
75520;SDS011;64102;48.628;9.002;2023-08-21T11:12:27;39.38;;;37.33;;
75520;SDS011;64102;48.628;9.002;2023-08-21T11:14:53;33.83;;;31.75;;
75520;SDS011;64102;48.628;9.002;2023-08-21T11:17:18;38.67;;;36.67;;
75520;SDS011;64102;48.628;9.002;2023-08-21T11:19:43;33.57;;;31.57;;
75520;SDS011;64102;48.628;9.002;2023-08-21T11:22:10;33.72;;;31.65;;
75520;SDS011;64102;48.628;9.002;2023-08-21T11:24:40;30.98;;;29.10;;
75520;SDS011;64102;48.628;9.002;2023-08-21T11:27:10;30.98;;;29.05;;
75520;SDS011;64102;48.628;9.002;2023-08-21T11:29:47;18.70;;;17.10;;
75520;SDS011;64102;48.628;9.002;2023-08-21T11:32:16;20.42;;;18.83;;
75520;SDS011;64102;48.628;9.002;2023-08-21T11:34:53;19.65;;;18.25;;
75520;SDS011;64102;48.628;9.002;2023-08-21T11:37:20;15.65;;;14.25;;
75520;SDS011;64102;48.628;9.002;2023-08-21T11:39:50;12.90;;;10.20;;
75520;SDS011;64102;48.628;9.002;2023-08-21T11:42:18;12.10;;;7.93;;
75520;SDS011;64102;48.628;9.002;2023-08-21T11:44:49;10.35;;;8.63;;
75520;SDS011;64102;48.628;9.002;2023-08-21T11:47:16;11.93;;;10.43;;
75520;SDS011;64102;48.628;9.002;2023-08-21T11:49:42;11.32;;;6.97;;
75520;SDS011;64102;48.628;9.002;2023-08-21T11:52:10;11.30;;;8.48;;
75520;SDS011;64102;48.628;9.002;2023-08-21T11:54:37;11.07;;;7.35;;
75520;SDS011;64102;48.628;9.002;2023-08-21T11:57:04;12.57;;;11.30;;
75520;SDS011;64102;48.628;9.002;2023-08-21T11:59:31;14.52;;;13.20;;
75520;SDS011;64102;48.628;9.002;2023-08-21T12:01:56;17.77;;;16.38;;
75520;SDS011;64102;48.628;9.002;2023-08-21T12:04:21;10.33;;;9.20;;
75520;SDS011;64102;48.628;9.002;2023-08-21T12:06:47;10.75;;;9.13;;
75520;SDS011;64102;48.628;9.002;2023-08-21T12:09:12;10.90;;;7.25;;
75520;SDS011;64102;48.628;9.002;2023-08-21T12:11:38;11.40;;;6.88;;
75520;SDS011;64102;48.628;9.002;2023-08-21T12:14:03;11.48;;;9.82;;
75520;SDS011;64102;48.628;9.002;2023-08-21T12:16:29;10.30;;;8.68;;
75520;SDS011;64102;48.628;9.002;2023-08-21T12:18:55;11.85;;;10.73;;
75520;SDS011;64102;48.628;9.002;2023-08-21T12:21:22;16.38;;;14.88;;
75520;SDS011;64102;48.628;9.002;2023-08-21T12:23:50;19.17;;;17.65;;
75520;SDS011;64102;48.628;9.002;2023-08-21T12:26:16;30.37;;;28.53;;
75520;SDS011;64102;48.628;9.002;2023-08-21T12:28:46;23.05;;;21.40;;
75520;SDS011;64102;48.628;9.002;2023-08-21T12:31:14;30.27;;;28.55;;
75520;SDS011;64102;48.628;9.002;2023-08-21T12:33:39;34.10;;;32.17;;
75520;SDS011;64102;48.628;9.002;2023-08-21T12:36:05;27.40;;;25.63;;
75520;SDS011;64102;48.628;9.002;2023-08-21T12:38:30;35.75;;;33.78;;
75520;SDS011;64102;48.628;9.002;2023-08-21T12:40:56;40.75;;;38.63;;
75520;SDS011;64102;48.628;9.002;2023-08-21T12:43:22;43.83;;;41.65;;
75520;SDS011;64102;48.628;9.002;2023-08-21T12:45:47;46.97;;;44.47;;
75520;SDS011;64102;48.628;9.002;2023-08-21T12:48:12;40.08;;;37.97;;
75520;SDS011;64102;48.628;9.002;2023-08-21T12:50:38;35.85;;;33.92;;
75520;SDS011;64102;48.628;9.002;2023-08-21T12:53:03;32.65;;;30.65;;
75520;SDS011;64102;48.628;9.002;2023-08-21T12:55:29;22.33;;;20.87;;
75520;SDS011;64102;48.628;9.002;2023-08-21T12:57:55;15.23;;;13.93;;
75520;SDS011;64102;48.628;9.002;2023-08-21T13:00:21;24.25;;;22.60;;
75520;SDS011;64102;48.628;9.002;2023-08-21T13:02:46;15.77;;;14.35;;
75520;SDS011;64102;48.628;9.002;2023-08-21T13:05:12;14.30;;;12.97;;
75520;SDS011;64102;48.628;9.002;2023-08-21T13:07:37;17.43;;;16.03;;
75520;SDS011;64102;48.628;9.002;2023-08-21T13:10:03;22.05;;;20.45;;
75520;SDS011;64102;48.628;9.002;2023-08-21T13:12:28;17.20;;;15.70;;
75520;SDS011;64102;48.628;9.002;2023-08-21T13:14:53;16.23;;;14.77;;
75520;SDS011;64102;48.628;9.002;2023-08-21T13:17:19;17.27;;;15.85;;
75520;SDS011;64102;48.628;9.002;2023-08-21T13:19:44;17.65;;;16.27;;
75520;SDS011;64102;48.628;9.002;2023-08-21T13:22:10;17.75;;;16.33;;
75520;SDS011;64102;48.628;9.002;2023-08-21T13:24:35;16.23;;;14.93;;
75520;SDS011;64102;48.628;9.002;2023-08-21T13:27:00;14.27;;;13.03;;
75520;SDS011;64102;48.628;9.002;2023-08-21T13:29:26;22.80;;;21.30;;
75520;SDS011;64102;48.628;9.002;2023-08-21T13:31:51;20.58;;;18.92;;
75520;SDS011;64102;48.628;9.002;2023-08-21T13:34:17;20.35;;;18.95;;
75520;SDS011;64102;48.628;9.002;2023-08-21T13:36:42;22.60;;;21.05;;
75520;SDS011;64102;48.628;9.002;2023-08-21T13:39:08;26.98;;;25.27;;
75520;SDS011;64102;48.628;9.002;2023-08-21T13:41:35;24.33;;;22.73;;
75520;SDS011;64102;48.628;9.002;2023-08-21T13:44:01;21.98;;;20.50;;
75520;SDS011;64102;48.628;9.002;2023-08-21T13:46:26;22.52;;;21.00;;
75520;SDS011;64102;48.628;9.002;2023-08-21T13:48:52;24.65;;;22.95;;
75520;SDS011;64102;48.628;9.002;2023-08-21T13:51:17;27.10;;;25.47;;
75520;SDS011;64102;48.628;9.002;2023-08-21T13:53:42;28.33;;;26.53;;
75520;SDS011;64102;48.628;9.002;2023-08-21T13:56:08;30.33;;;28.63;;
75520;SDS011;64102;48.628;9.002;2023-08-21T13:58:33;28.00;;;26.20;;
75520;SDS011;64102;48.628;9.002;2023-08-21T14:00:59;18.65;;;17.25;;
75520;SDS011;64102;48.628;9.002;2023-08-21T14:03:24;17.70;;;16.30;;
75520;SDS011;64102;48.628;9.002;2023-08-21T14:05:49;18.17;;;16.60;;
75520;SDS011;64102;48.628;9.002;2023-08-21T14:08:15;19.08;;;17.73;;
75520;SDS011;64102;48.628;9.002;2023-08-21T14:10:40;21.63;;;20.00;;
75520;SDS011;64102;48.628;9.002;2023-08-21T14:13:06;14.67;;;13.37;;
75520;SDS011;64102;48.628;9.002;2023-08-21T14:15:33;20.83;;;19.30;;
75520;SDS011;64102;48.628;9.002;2023-08-21T14:17:59;12.20;;;10.20;;
75520;SDS011;64102;48.628;9.002;2023-08-21T14:20:24;10.68;;;8.85;;
75520;SDS011;64102;48.628;9.002;2023-08-21T14:22:50;10.57;;;9.10;;
75520;SDS011;64102;48.628;9.002;2023-08-21T14:25:15;13.57;;;12.27;;
75520;SDS011;64102;48.628;9.002;2023-08-21T14:27:41;11.20;;;9.95;;
75520;SDS011;64102;48.628;9.002;2023-08-21T14:30:07;12.37;;;11.27;;
75520;SDS011;64102;48.628;9.002;2023-08-21T14:32:33;14.45;;;13.25;;
75520;SDS011;64102;48.628;9.002;2023-08-21T14:34:58;16.48;;;15.07;;
75520;SDS011;64102;48.628;9.002;2023-08-21T14:37:24;14.00;;;12.70;;
75520;SDS011;64102;48.628;9.002;2023-08-21T14:39:49;12.98;;;11.75;;
75520;SDS011;64102;48.628;9.002;2023-08-21T14:42:15;12.75;;;11.55;;
75520;SDS011;64102;48.628;9.002;2023-08-21T14:44:40;12.23;;;11.02;;
75520;SDS011;64102;48.628;9.002;2023-08-21T14:47:06;12.73;;;11.43;;
75520;SDS011;64102;48.628;9.002;2023-08-21T14:49:31;10.98;;;9.55;;
75520;SDS011;64102;48.628;9.002;2023-08-21T14:51:57;12.70;;;11.50;;